Sagar Kanya — VTJR — position and weather

sailwx.info

Track history (hours):
 
Tides and Currents Weather Stations Pressure Air Temp Water Temp Dewpoint Dewpoint Depression Visibility Wind Speed Wind Dir Waves Ship Positions

Oceanographic research ship Sagar Kanya (India)

Detailed information on ship capabilities available from University of Delaware's Ocean Information Center.

Last reported at 2020-Jan-23 03:07 UTC. Time now 2020-Jan-24 05:41 UTC.
Position N 14°36' E 072°00'.

Type: Other ship. MMSI: 419320000.

Wind from 060 at 14 knots

Barometer 1014.3 mb
Air temperature 27.6 ° C

Date/timePositionNaut miles runAvg speedWind from/ knotsBaromVisibWave heightAir tempDewpointWater temp
2020-Jan-23 03:07N 14°36' E 072°00'13 3.8 060 / 141014.3 27.6
2020-Jan-22 23:37N 14°48' E 071°54'17 5.6 040 / 161012.2 26.8
2020-Jan-22 20:37N 15°00' E 071°42'13 5.3 030 / 141013.7 26.8
2020-Jan-22 18:07N 15°12' E 071°36'13 3.8 010 / 161014.8 27.0
2020-Jan-22 14:37N 15°24' E 071°30'6 2.3 040 / 141014.8 27.2
2020-Jan-22 12:07N 15°24' E 071°24'13 3.8 040 / 141012.8 27.5
2020-Jan-22 08:37N 15°12' E 071°30'30 4.9 050 / 191014.4 27.6
2020-Jan-22 02:37N 14°48' E 071°48'13 4.5 050 / 191015.3 27.0
2020-Jan-21 23:38N 14°36' E 071°54'6 2.4 060 / 211013.2 26.8
2020-Jan-21 21:08N 14°42' E 071°54'17 5.6 040 / 121014.0 26.7
2020-Jan-21 18:08N 14°54' E 071°42'13 4.4 020 / 121015.2 26.8
2020-Jan-21 15:08N 15°06' E 071°36'8 1.4 020 / 121015.0 26.8
2020-Jan-21 09:08N 15°12' E 071°30'0 0.0 020 / 81014.0 27.1
2020-Jan-21 06:08N 15°12' E 071°30'13 4.4 040 / 101017.0 27.2
2020-Jan-21 03:08N 15°24' E 071°24'6 2.0 020 / 101015.5 26.8
2020-Jan-21 00:08N 15°18' E 071°24'17 4.8 350 / 161012.8 26.3
2020-Jan-20 20:38N 15°06' E 071°36'13 5.3 350 / 121013.5 26.8
2020-Jan-20 18:08N 14°54' E 071°42'13 4.4 350 / 121015.3 26.8
2020-Jan-20 15:08N 14°42' E 071°48'0 0.0 1014.4 27.2
2020-Jan-20 08:38N 14°42' E 071°48'17 6.7 020 / 41013.9 29.0
2020-Jan-20 06:08N 14°54' E 071°36'13 4.4 030 / 81016.2 28.6
2020-Jan-20 03:08N 15°06' E 071°30'13 4.4 020 / 81014.9 27.6
2020-Jan-20 00:08N 15°18' E 071°24'13 4.4 020 / 61013.1 26.0
2020-Jan-19 21:08N 15°30' E 071°18'12 4.0 350 / 101013.2 26.1
2020-Jan-19 18:08N 15°18' E 071°18'8 2.8 030 / 101014.4 26.6
2020-Jan-19 15:08N 15°12' E 071°24'30 4.6 040 / 121014.1 26.7
2020-Jan-19 08:38N 14°48' E 071°42'13 5.3 040 / 101013.9 26.5
2020-Jan-19 06:08N 14°36' E 071°48'13 4.4 030 / 101016.1 26.4
2020-Jan-19 03:08N 14°24' E 071°54'8 2.8 010 / 101015.5 26.0
2020-Jan-19 00:08N 14°30' E 071°48'13 4.4 340 / 61012.3 25.7
2020-Jan-18 21:08N 14°42' E 071°42'17 5.6 1012.8 25.5
2020-Jan-18 18:08N 14°54' E 071°30'13 2.2 020 / 81014.0 25.9
2020-Jan-18 12:08N 15°06' E 071°24'21 3.6 040 / 81011.9 26.6
2020-Jan-18 06:08N 15°24' E 071°12'27 4.4 030 / 101015.9 24.0
2020-Jan-18 00:08N 15°00' E 071°24'17 5.6 030 / 161012.8 24.0
2020-Jan-17 21:08N 14°48' E 071°36'13 4.4 050 / 101013.6 24.3
2020-Jan-17 18:08N 14°36' E 071°42'13 4.4 040 / 121014.8 24.6
2020-Jan-17 15:08N 14°24' E 071°48'8 2.8 040 / 161014.4 24.9
2020-Jan-17 12:08N 14°18' E 071°54'0 0.0 1012.7 25.6
2020-Jan-17 09:08N 14°18' E 071°54'26 8.7 010 / 171013.4 25.1
2020-Jan-17 06:08N 14°30' E 072°18'24 8.0 1015.9 25.1
2020-Jan-17 03:08N 14°36' E 072°42'25 8.3 1015.2 24.9
2020-Jan-17 00:08N 14°54' E 073°00'26 8.7 010 / 211013.2 24.8
2020-Jan-16 21:08N 15°06' E 073°24'29 8.4 010 / 231013.1 24.9
2020-Jan-16 17:38N 15°24' E 073°48'0 0.0 360 / 271014.0 24.0
2020-Jan-16 15:08N 15°24' E 073°48'0 0.0 340 / 121013.6 25.3
2020-Jan-16 11:38N 15°24' E 073°48'0 0.0 320 / 101011.3 26.8
2020-Jan-16 09:08N 15°24' E 073°48'0 0.0 320 / 101012.0 27.0
2020-Jan-16 06:08N 15°24' E 073°48'0 0.0 020 / 81015.4 26.3
2020-Jan-16 03:08N 15°24' E 073°48'0 0.0 040 / 81015.6 22.3
2020-Jan-15 21:08N 15°24' E 073°48'0 0.0 010 / 121013.1 23.4
2020-Jan-15 18:08N 15°24' E 073°48'0 0.0 360 / 81013.8 24.7
2020-Jan-15 15:08N 15°24' E 073°48'0 0.0 350 / 61013.4 25.8
2020-Jan-15 12:08N 15°24' E 073°48'0 0.0 320 / 101011.2 26.9
2020-Jan-15 09:08N 15°24' E 073°48'0 0.0 310 / 101011.1 27.6
2020-Jan-15 05:38N 15°24' E 073°48'0 0.0 350 / 61014.4 26.1
2020-Jan-15 03:08N 15°24' E 073°48'0 0.0 060 / 21014.1 24.2
2020-Jan-14 21:08N 15°24' E 073°48'0 0.0 050 / 41011.7 24.5
2020-Jan-14 18:08N 15°24' E 073°48'0 0.0 010 / 81012.6 25.8
2020-Jan-14 14:38N 15°24' E 073°48'0 0.0 350 / 121012.1 26.9
2020-Jan-14 12:08N 15°24' E 073°48'0 0.0 330 / 141010.3 27.4
2020-Jan-14 09:08N 15°24' E 073°48'0 0.0 320 / 121010.2 27.7
2020-Jan-14 03:08N 15°24' E 073°48'0 0.0 090 / 21014.1 24.1
2020-Jan-14 00:08N 15°24' E 073°48'0 0.0 090 / 21012.1 24.0
2020-Jan-13 21:08N 15°24' E 073°48'0 0.0 020 / 61011.9 24.8
2020-Jan-13 18:08N 15°24' E 073°48'0 0.0 1013.1 26.3
2020-Jan-13 15:08N 15°24' E 073°48'0 0.0 350 / 101012.5 27.1
2020-Jan-13 09:08N 15°24' E 073°48'0 0.0 310 / 81010.6 28.6
2020-Jan-13 06:08N 15°24' E 073°48'0 0.0 310 / 41014.0 27.8
2020-Jan-13 03:08N 15°24' E 073°48'   110 / 21014.5 24.4
Track history (hours):
 
Tides and Currents Weather Stations Pressure Air Temp Water Temp Dewpoint Dewpoint Depression Visibility Wind Speed Wind Dir Waves Ship Positions

Oceanographic research ship Sagar Kanya (India)

Detailed information on ship capabilities available from University of Delaware's Ocean Information Center.

Last reported at 2020-Jan-23 03:07 UTC. Time now 2020-Jan-24 05:41 UTC.
Position N 14°36' E 072°00'.

Type: Other ship. MMSI: 419320000.

Wind from 060 at 14 knots

Barometer 1014.3 mb
Air temperature 27.6 ° C

Date/timePositionNaut miles runAvg speedWind from/ knotsBaromVisibWave heightAir tempDewpointWater temp
2020-Jan-23 03:07N 14°36' E 072°00'13 3.8 060 / 141014.3 27.6
2020-Jan-22 23:37N 14°48' E 071°54'17 5.6 040 / 161012.2 26.8
2020-Jan-22 20:37N 15°00' E 071°42'13 5.3 030 / 141013.7 26.8
2020-Jan-22 18:07N 15°12' E 071°36'13 3.8 010 / 161014.8 27.0
2020-Jan-22 14:37N 15°24' E 071°30'6 2.3 040 / 141014.8 27.2
2020-Jan-22 12:07N 15°24' E 071°24'13 3.8 040 / 141012.8 27.5
2020-Jan-22 08:37N 15°12' E 071°30'30 4.9 050 / 191014.4 27.6
2020-Jan-22 02:37N 14°48' E 071°48'13 4.5 050 / 191015.3 27.0
2020-Jan-21 23:38N 14°36' E 071°54'6 2.4 060 / 211013.2 26.8
2020-Jan-21 21:08N 14°42' E 071°54'17 5.6 040 / 121014.0 26.7
2020-Jan-21 18:08N 14°54' E 071°42'13 4.4 020 / 121015.2 26.8
2020-Jan-21 15:08N 15°06' E 071°36'8 1.4 020 / 121015.0 26.8
2020-Jan-21 09:08N 15°12' E 071°30'0 0.0 020 / 81014.0 27.1
2020-Jan-21 06:08N 15°12' E 071°30'13 4.4 040 / 101017.0 27.2
2020-Jan-21 03:08N 15°24' E 071°24'6 2.0 020 / 101015.5 26.8
2020-Jan-21 00:08N 15°18' E 071°24'17 4.8 350 / 161012.8 26.3
2020-Jan-20 20:38N 15°06' E 071°36'13 5.3 350 / 121013.5 26.8
2020-Jan-20 18:08N 14°54' E 071°42'13 4.4 350 / 121015.3 26.8
2020-Jan-20 15:08N 14°42' E 071°48'0 0.0 1014.4 27.2
2020-Jan-20 08:38N 14°42' E 071°48'17 6.7 020 / 41013.9 29.0
2020-Jan-20 06:08N 14°54' E 071°36'13 4.4 030 / 81016.2 28.6
2020-Jan-20 03:08N 15°06' E 071°30'13 4.4 020 / 81014.9 27.6
2020-Jan-20 00:08N 15°18' E 071°24'13 4.4 020 / 61013.1 26.0
2020-Jan-19 21:08N 15°30' E 071°18'12 4.0 350 / 101013.2 26.1
2020-Jan-19 18:08N 15°18' E 071°18'8 2.8 030 / 101014.4 26.6
2020-Jan-19 15:08N 15°12' E 071°24'30 4.6 040 / 121014.1 26.7
2020-Jan-19 08:38N 14°48' E 071°42'13 5.3 040 / 101013.9 26.5
2020-Jan-19 06:08N 14°36' E 071°48'13 4.4 030 / 101016.1 26.4
2020-Jan-19 03:08N 14°24' E 071°54'8 2.8 010 / 101015.5 26.0
2020-Jan-19 00:08N 14°30' E 071°48'13 4.4 340 / 61012.3 25.7
2020-Jan-18 21:08N 14°42' E 071°42'17 5.6 1012.8 25.5
2020-Jan-18 18:08N 14°54' E 071°30'13 2.2 020 / 81014.0 25.9
2020-Jan-18 12:08N 15°06' E 071°24'21 3.6 040 / 81011.9 26.6
2020-Jan-18 06:08N 15°24' E 071°12'27 4.4 030 / 101015.9 24.0
2020-Jan-18 00:08N 15°00' E 071°24'17 5.6 030 / 161012.8 24.0
2020-Jan-17 21:08N 14°48' E 071°36'13 4.4 050 / 101013.6 24.3
2020-Jan-17 18:08N 14°36' E 071°42'13 4.4 040 / 121014.8 24.6
2020-Jan-17 15:08N 14°24' E 071°48'8 2.8 040 / 161014.4 24.9
2020-Jan-17 12:08N 14°18' E 071°54'0 0.0 1012.7 25.6
2020-Jan-17 09:08N 14°18' E 071°54'26 8.7 010 / 171013.4 25.1
2020-Jan-17 06:08N 14°30' E 072°18'24 8.0 1015.9 25.1
2020-Jan-17 03:08N 14°36' E 072°42'25 8.3 1015.2 24.9
2020-Jan-17 00:08N 14°54' E 073°00'26 8.7 010 / 211013.2 24.8
2020-Jan-16 21:08N 15°06' E 073°24'29 8.4 010 / 231013.1 24.9
2020-Jan-16 17:38N 15°24' E 073°48'0 0.0 360 / 271014.0 24.0
2020-Jan-16 15:08N 15°24' E 073°48'0 0.0 340 / 121013.6 25.3
2020-Jan-16 11:38N 15°24' E 073°48'0 0.0 320 / 101011.3 26.8
2020-Jan-16 09:08N 15°24' E 073°48'0 0.0 320 / 101012.0 27.0
2020-Jan-16 06:08N 15°24' E 073°48'0 0.0 020 / 81015.4 26.3
2020-Jan-16 03:08N 15°24' E 073°48'0 0.0 040 / 81015.6 22.3
2020-Jan-15 21:08N 15°24' E 073°48'0 0.0 010 / 121013.1 23.4
2020-Jan-15 18:08N 15°24' E 073°48'0 0.0 360 / 81013.8 24.7
2020-Jan-15 15:08N 15°24' E 073°48'0 0.0 350 / 61013.4 25.8
2020-Jan-15 12:08N 15°24' E 073°48'0 0.0 320 / 101011.2 26.9
2020-Jan-15 09:08N 15°24' E 073°48'0 0.0 310 / 101011.1 27.6
2020-Jan-15 05:38N 15°24' E 073°48'0 0.0 350 / 61014.4 26.1
2020-Jan-15 03:08N 15°24' E 073°48'0 0.0 060 / 21014.1 24.2
2020-Jan-14 21:08N 15°24' E 073°48'0 0.0 050 / 41011.7 24.5
2020-Jan-14 18:08N 15°24' E 073°48'0 0.0 010 / 81012.6 25.8
2020-Jan-14 14:38N 15°24' E 073°48'0 0.0 350 / 121012.1 26.9
2020-Jan-14 12:08N 15°24' E 073°48'0 0.0 330 / 141010.3 27.4
2020-Jan-14 09:08N 15°24' E 073°48'0 0.0 320 / 121010.2 27.7
2020-Jan-14 03:08N 15°24' E 073°48'0 0.0 090 / 21014.1 24.1
2020-Jan-14 00:08N 15°24' E 073°48'0 0.0 090 / 21012.1 24.0
2020-Jan-13 21:08N 15°24' E 073°48'0 0.0 020 / 61011.9 24.8
2020-Jan-13 18:08N 15°24' E 073°48'0 0.0 1013.1 26.3
2020-Jan-13 15:08N 15°24' E 073°48'0 0.0 350 / 101012.5 27.1
2020-Jan-13 09:08N 15°24' E 073°48'0 0.0 310 / 81010.6 28.6
2020-Jan-13 06:08N 15°24' E 073°48'0 0.0 310 / 41014.0 27.8
2020-Jan-13 03:08N 15°24' E 073°48'   110 / 21014.5 24.4

Dump ship's entire track history